Terminal Aerodrome Forecast
Issued by NWS

Home | Current Version | Previous Version | Text Only | Print | Product List | Glossary On
Versions: 1 2 3 4 5 6 7 8 9 10 11 12
000
FTUS45 KFGZ 182300
TAFGCN
TAF
KGCN 182334Z 1900/1924 24009G18KT P6SM SCT050 SCT070
     FM190200 00000KT P6SM SCT035
     FM191600 22007KT P6SM SCT050
     FM192000 23010G18KT P6SM FEW050=

USA.gov is the U.S. government's official web portal to all federal, state and local government web resources and services.